sensor_id;sensor_type;location;lat;lon;timestamp;P1;durP1;ratioP1;P2;durP2;ratioP2
7539;SDS011;3811;49.006;12.076;2023-04-24T00:00:22;4.30;;;3.90;;
7539;SDS011;3811;49.006;12.076;2023-04-24T00:02:49;3.97;;;3.57;;
7539;SDS011;3811;49.006;12.076;2023-04-24T00:05:16;4.60;;;4.20;;
7539;SDS011;3811;49.006;12.076;2023-04-24T00:07:44;3.63;;;3.33;;
7539;SDS011;3811;49.006;12.076;2023-04-24T00:10:11;4.53;;;3.73;;
7539;SDS011;3811;49.006;12.076;2023-04-24T00:12:38;4.83;;;3.93;;
7539;SDS011;3811;49.006;12.076;2023-04-24T00:15:08;8.27;;;4.23;;
7539;SDS011;3811;49.006;12.076;2023-04-24T00:17:35;5.37;;;4.47;;
7539;SDS011;3811;49.006;12.076;2023-04-24T00:20:03;4.37;;;3.97;;
7539;SDS011;3811;49.006;12.076;2023-04-24T00:22:32;5.43;;;4.57;;
7539;SDS011;3811;49.006;12.076;2023-04-24T00:24:59;6.30;;;4.83;;
7539;SDS011;3811;49.006;12.076;2023-04-24T00:27:26;5.40;;;4.90;;
7539;SDS011;3811;49.006;12.076;2023-04-24T00:29:53;5.77;;;5.20;;
7539;SDS011;3811;49.006;12.076;2023-04-24T00:32:22;7.47;;;5.43;;
7539;SDS011;3811;49.006;12.076;2023-04-24T00:34:49;6.27;;;5.20;;
7539;SDS011;3811;49.006;12.076;2023-04-24T00:37:16;6.37;;;5.27;;
7539;SDS011;3811;49.006;12.076;2023-04-24T00:39:44;5.77;;;5.27;;
7539;SDS011;3811;49.006;12.076;2023-04-24T00:42:11;6.03;;;5.47;;
7539;SDS011;3811;49.006;12.076;2023-04-24T00:44:38;8.90;;;5.90;;
7539;SDS011;3811;49.006;12.076;2023-04-24T00:47:05;7.17;;;5.30;;
7539;SDS011;3811;49.006;12.076;2023-04-24T00:49:34;6.40;;;5.90;;
7539;SDS011;3811;49.006;12.076;2023-04-24T00:52:01;6.63;;;5.90;;
7539;SDS011;3811;49.006;12.076;2023-04-24T00:54:32;6.57;;;5.87;;
7539;SDS011;3811;49.006;12.076;2023-04-24T00:56:59;7.63;;;6.30;;
7539;SDS011;3811;49.006;12.076;2023-04-24T00:59:27;6.53;;;5.93;;
7539;SDS011;3811;49.006;12.076;2023-04-24T01:01:55;6.43;;;5.83;;
7539;SDS011;3811;49.006;12.076;2023-04-24T01:04:22;7.67;;;6.80;;
7539;SDS011;3811;49.006;12.076;2023-04-24T01:06:51;7.40;;;6.17;;
7539;SDS011;3811;49.006;12.076;2023-04-24T01:09:18;7.00;;;6.30;;
7539;SDS011;3811;49.006;12.076;2023-04-24T01:11:46;7.37;;;6.47;;
7539;SDS011;3811;49.006;12.076;2023-04-24T01:14:13;7.47;;;6.87;;
7539;SDS011;3811;49.006;12.076;2023-04-24T01:16:41;6.40;;;5.80;;
7539;SDS011;3811;49.006;12.076;2023-04-24T01:19:08;7.23;;;6.47;;
7539;SDS011;3811;49.006;12.076;2023-04-24T01:21:37;6.70;;;6.00;;
7539;SDS011;3811;49.006;12.076;2023-04-24T01:24:06;9.10;;;6.30;;
7539;SDS011;3811;49.006;12.076;2023-04-24T01:26:33;7.13;;;6.43;;
7539;SDS011;3811;49.006;12.076;2023-04-24T01:29:01;7.57;;;6.77;;
7539;SDS011;3811;49.006;12.076;2023-04-24T01:31:28;7.50;;;6.80;;
7539;SDS011;3811;49.006;12.076;2023-04-24T01:33:56;7.97;;;7.20;;
7539;SDS011;3811;49.006;12.076;2023-04-24T01:36:23;11.30;;;8.40;;
7539;SDS011;3811;49.006;12.076;2023-04-24T01:38:52;9.83;;;8.30;;
7539;SDS011;3811;49.006;12.076;2023-04-24T01:41:21;10.33;;;7.73;;
7539;SDS011;3811;49.006;12.076;2023-04-24T01:43:50;9.77;;;8.77;;
7539;SDS011;3811;49.006;12.076;2023-04-24T01:46:18;9.33;;;8.40;;
7539;SDS011;3811;49.006;12.076;2023-04-24T01:48:46;10.00;;;8.63;;
7539;SDS011;3811;49.006;12.076;2023-04-24T01:51:13;10.17;;;8.57;;
7539;SDS011;3811;49.006;12.076;2023-04-24T01:53:40;11.47;;;9.13;;
7539;SDS011;3811;49.006;12.076;2023-04-24T01:56:08;10.37;;;9.27;;
7539;SDS011;3811;49.006;12.076;2023-04-24T01:58:37;12.30;;;9.03;;
7539;SDS011;3811;49.006;12.076;2023-04-24T02:01:05;12.20;;;10.10;;
7539;SDS011;3811;49.006;12.076;2023-04-24T02:03:33;11.43;;;9.73;;
7539;SDS011;3811;49.006;12.076;2023-04-24T02:06:00;12.23;;;9.83;;
7539;SDS011;3811;49.006;12.076;2023-04-24T02:08:27;10.60;;;9.17;;
7539;SDS011;3811;49.006;12.076;2023-04-24T02:10:55;9.67;;;8.70;;
7539;SDS011;3811;49.006;12.076;2023-04-24T02:13:23;11.23;;;9.73;;
7539;SDS011;3811;49.006;12.076;2023-04-24T02:15:52;12.47;;;8.73;;
7539;SDS011;3811;49.006;12.076;2023-04-24T02:18:19;10.23;;;8.67;;
7539;SDS011;3811;49.006;12.076;2023-04-24T02:20:47;10.13;;;8.30;;
7539;SDS011;3811;49.006;12.076;2023-04-24T02:23:14;10.67;;;8.80;;
7539;SDS011;3811;49.006;12.076;2023-04-24T02:25:41;9.53;;;8.40;;
7539;SDS011;3811;49.006;12.076;2023-04-24T02:28:08;11.13;;;8.47;;
7539;SDS011;3811;49.006;12.076;2023-04-24T02:30:36;8.40;;;7.30;;
7539;SDS011;3811;49.006;12.076;2023-04-24T02:33:04;8.70;;;7.80;;
7539;SDS011;3811;49.006;12.076;2023-04-24T02:35:32;9.67;;;7.20;;
7539;SDS011;3811;49.006;12.076;2023-04-24T02:37:59;8.77;;;7.83;;
7539;SDS011;3811;49.006;12.076;2023-04-24T02:40:27;8.07;;;7.10;;
7539;SDS011;3811;49.006;12.076;2023-04-24T02:42:54;10.03;;;6.87;;
7539;SDS011;3811;49.006;12.076;2023-04-24T02:45:23;7.03;;;6.33;;
7539;SDS011;3811;49.006;12.076;2023-04-24T02:47:50;9.60;;;6.93;;
7539;SDS011;3811;49.006;12.076;2023-04-24T02:50:18;7.23;;;6.63;;
7539;SDS011;3811;49.006;12.076;2023-04-24T02:52:46;7.63;;;6.23;;
7539;SDS011;3811;49.006;12.076;2023-04-24T02:55:13;9.33;;;7.00;;
7539;SDS011;3811;49.006;12.076;2023-04-24T02:57:40;6.67;;;5.70;;
7539;SDS011;3811;49.006;12.076;2023-04-24T03:00:08;6.63;;;6.03;;
7539;SDS011;3811;49.006;12.076;2023-04-24T03:02:36;8.10;;;6.37;;
7539;SDS011;3811;49.006;12.076;2023-04-24T03:05:04;6.57;;;5.97;;
7539;SDS011;3811;49.006;12.076;2023-04-24T03:07:34;7.20;;;6.40;;
7539;SDS011;3811;49.006;12.076;2023-04-24T03:10:02;7.53;;;6.77;;
7539;SDS011;3811;49.006;12.076;2023-04-24T03:12:30;7.47;;;6.43;;
7539;SDS011;3811;49.006;12.076;2023-04-24T03:14:57;6.80;;;6.13;;
7539;SDS011;3811;49.006;12.076;2023-04-24T03:17:24;7.33;;;6.37;;
7539;SDS011;3811;49.006;12.076;2023-04-24T03:19:51;6.83;;;6.10;;
7539;SDS011;3811;49.006;12.076;2023-04-24T03:22:19;6.60;;;5.90;;
7539;SDS011;3811;49.006;12.076;2023-04-24T03:24:47;6.80;;;5.93;;
7539;SDS011;3811;49.006;12.076;2023-04-24T03:27:17;6.93;;;6.07;;
7539;SDS011;3811;49.006;12.076;2023-04-24T03:29:54;9.10;;;7.03;;
7539;SDS011;3811;49.006;12.076;2023-04-24T03:32:25;8.90;;;5.80;;
7539;SDS011;3811;49.006;12.076;2023-04-24T03:34:53;7.80;;;6.03;;
7539;SDS011;3811;49.006;12.076;2023-04-24T03:37:20;6.67;;;6.07;;
7539;SDS011;3811;49.006;12.076;2023-04-24T03:39:59;7.90;;;6.03;;
7539;SDS011;3811;49.006;12.076;2023-04-24T03:42:27;7.87;;;6.47;;
7539;SDS011;3811;49.006;12.076;2023-04-24T03:44:55;7.07;;;6.37;;
7539;SDS011;3811;49.006;12.076;2023-04-24T03:47:27;7.23;;;6.53;;
7539;SDS011;3811;49.006;12.076;2023-04-24T03:49:57;7.33;;;6.63;;
7539;SDS011;3811;49.006;12.076;2023-04-24T03:52:24;9.47;;;6.77;;
7539;SDS011;3811;49.006;12.076;2023-04-24T03:54:51;6.37;;;5.77;;
7539;SDS011;3811;49.006;12.076;2023-04-24T03:57:20;7.03;;;6.43;;
7539;SDS011;3811;49.006;12.076;2023-04-24T04:00:01;8.43;;;6.87;;
7539;SDS011;3811;49.006;12.076;2023-04-24T04:02:39;8.70;;;6.50;;
7539;SDS011;3811;49.006;12.076;2023-04-24T04:05:08;8.30;;;6.50;;
7539;SDS011;3811;49.006;12.076;2023-04-24T04:07:35;7.67;;;6.87;;
7539;SDS011;3811;49.006;12.076;2023-04-24T04:10:04;9.30;;;7.37;;
7539;SDS011;3811;49.006;12.076;2023-04-24T04:12:34;7.03;;;6.33;;
7539;SDS011;3811;49.006;12.076;2023-04-24T04:15:02;7.13;;;6.43;;
7539;SDS011;3811;49.006;12.076;2023-04-24T04:17:31;7.63;;;6.83;;
7539;SDS011;3811;49.006;12.076;2023-04-24T04:19:59;7.50;;;6.70;;
7539;SDS011;3811;49.006;12.076;2023-04-24T04:22:30;7.17;;;6.47;;
7539;SDS011;3811;49.006;12.076;2023-04-24T04:24:59;8.17;;;7.03;;
7539;SDS011;3811;49.006;12.076;2023-04-24T04:27:28;7.10;;;6.40;;
7539;SDS011;3811;49.006;12.076;2023-04-24T04:30:03;6.87;;;6.27;;
7539;SDS011;3811;49.006;12.076;2023-04-24T04:32:38;8.37;;;7.10;;
7539;SDS011;3811;49.006;12.076;2023-04-24T04:35:06;7.37;;;6.67;;
7539;SDS011;3811;49.006;12.076;2023-04-24T04:37:34;6.87;;;6.00;;
7539;SDS011;3811;49.006;12.076;2023-04-24T04:40:10;6.73;;;5.93;;
7539;SDS011;3811;49.006;12.076;2023-04-24T04:42:47;6.60;;;5.77;;
7539;SDS011;3811;49.006;12.076;2023-04-24T04:45:20;6.77;;;6.07;;
7539;SDS011;3811;49.006;12.076;2023-04-24T04:48:09;5.33;;;4.83;;
7539;SDS011;3811;49.006;12.076;2023-04-24T04:50:38;6.47;;;4.93;;
7539;SDS011;3811;49.006;12.076;2023-04-24T04:53:07;5.97;;;5.40;;
7539;SDS011;3811;49.006;12.076;2023-04-24T04:55:37;6.23;;;5.63;;
7539;SDS011;3811;49.006;12.076;2023-04-24T04:58:13;6.43;;;4.77;;
7539;SDS011;3811;49.006;12.076;2023-04-24T05:00:43;5.10;;;4.67;;
7539;SDS011;3811;49.006;12.076;2023-04-24T05:03:20;5.13;;;4.63;;
7539;SDS011;3811;49.006;12.076;2023-04-24T05:05:55;5.97;;;4.57;;
7539;SDS011;3811;49.006;12.076;2023-04-24T05:08:23;6.17;;;5.07;;
7539;SDS011;3811;49.006;12.076;2023-04-24T05:10:50;7.00;;;5.47;;
7539;SDS011;3811;49.006;12.076;2023-04-24T05:13:17;5.37;;;4.90;;
7539;SDS011;3811;49.006;12.076;2023-04-24T05:15:46;5.53;;;4.93;;
7539;SDS011;3811;49.006;12.076;2023-04-24T05:18:14;5.17;;;4.37;;
7539;SDS011;3811;49.006;12.076;2023-04-24T05:20:42;4.37;;;4.00;;
7539;SDS011;3811;49.006;12.076;2023-04-24T05:23:09;4.40;;;4.00;;
7539;SDS011;3811;49.006;12.076;2023-04-24T05:25:39;4.83;;;4.17;;
7539;SDS011;3811;49.006;12.076;2023-04-24T05:28:10;4.57;;;3.97;;
7539;SDS011;3811;49.006;12.076;2023-04-24T05:30:38;5.00;;;3.77;;
7539;SDS011;3811;49.006;12.076;2023-04-24T05:33:07;4.13;;;3.60;;
7539;SDS011;3811;49.006;12.076;2023-04-24T05:35:35;4.03;;;3.30;;
7539;SDS011;3811;49.006;12.076;2023-04-24T05:38:02;3.23;;;3.03;;
7539;SDS011;3811;49.006;12.076;2023-04-24T05:40:29;3.90;;;3.13;;
7539;SDS011;3811;49.006;12.076;2023-04-24T05:42:56;9.23;;;4.97;;
7539;SDS011;3811;49.006;12.076;2023-04-24T05:45:23;3.90;;;3.50;;
7539;SDS011;3811;49.006;12.076;2023-04-24T05:47:51;3.00;;;2.80;;
7539;SDS011;3811;49.006;12.076;2023-04-24T05:50:19;3.77;;;2.40;;
7539;SDS011;3811;49.006;12.076;2023-04-24T05:52:46;2.70;;;2.50;;
7539;SDS011;3811;49.006;12.076;2023-04-24T05:55:23;3.20;;;2.37;;
7539;SDS011;3811;49.006;12.076;2023-04-24T05:57:51;5.00;;;2.83;;
7539;SDS011;3811;49.006;12.076;2023-04-24T06:00:18;2.80;;;2.30;;
7539;SDS011;3811;49.006;12.076;2023-04-24T06:02:55;4.97;;;2.87;;
7539;SDS011;3811;49.006;12.076;2023-04-24T06:05:24;3.10;;;2.90;;
7539;SDS011;3811;49.006;12.076;2023-04-24T06:07:52;2.80;;;2.53;;
7539;SDS011;3811;49.006;12.076;2023-04-24T06:10:22;2.57;;;2.37;;
7539;SDS011;3811;49.006;12.076;2023-04-24T06:12:50;2.73;;;2.53;;
7539;SDS011;3811;49.006;12.076;2023-04-24T06:15:21;3.27;;;2.97;;
7539;SDS011;3811;49.006;12.076;2023-04-24T06:17:55;3.10;;;2.90;;
7539;SDS011;3811;49.006;12.076;2023-04-24T06:20:24;3.20;;;2.90;;
7539;SDS011;3811;49.006;12.076;2023-04-24T06:22:51;3.43;;;3.13;;
7539;SDS011;3811;49.006;12.076;2023-04-24T06:25:19;3.90;;;3.50;;
7539;SDS011;3811;49.006;12.076;2023-04-24T06:27:46;3.53;;;3.23;;
7539;SDS011;3811;49.006;12.076;2023-04-24T06:30:13;4.77;;;2.93;;
7539;SDS011;3811;49.006;12.076;2023-04-24T06:32:40;4.17;;;3.10;;
7539;SDS011;3811;49.006;12.076;2023-04-24T06:35:08;3.03;;;2.70;;
7539;SDS011;3811;49.006;12.076;2023-04-24T06:37:38;3.30;;;3.00;;
7539;SDS011;3811;49.006;12.076;2023-04-24T06:40:06;4.10;;;3.20;;
7539;SDS011;3811;49.006;12.076;2023-04-24T06:42:33;4.40;;;2.80;;
7539;SDS011;3811;49.006;12.076;2023-04-24T06:45:02;2.87;;;2.67;;
7539;SDS011;3811;49.006;12.076;2023-04-24T06:47:30;3.03;;;2.83;;
7539;SDS011;3811;49.006;12.076;2023-04-24T06:49:57;4.10;;;2.90;;
7539;SDS011;3811;49.006;12.076;2023-04-24T06:52:24;3.10;;;2.90;;
7539;SDS011;3811;49.006;12.076;2023-04-24T06:54:53;3.40;;;3.10;;
7539;SDS011;3811;49.006;12.076;2023-04-24T06:57:26;3.30;;;3.10;;
7539;SDS011;3811;49.006;12.076;2023-04-24T06:59:53;2.67;;;2.47;;
7539;SDS011;3811;49.006;12.076;2023-04-24T07:02:20;5.47;;;3.40;;
7539;SDS011;3811;49.006;12.076;2023-04-24T07:04:48;2.90;;;2.77;;
7539;SDS011;3811;49.006;12.076;2023-04-24T07:07:15;3.53;;;3.00;;
7539;SDS011;3811;49.006;12.076;2023-04-24T07:09:42;3.70;;;3.40;;
7539;SDS011;3811;49.006;12.076;2023-04-24T07:12:11;4.20;;;2.50;;
7539;SDS011;3811;49.006;12.076;2023-04-24T07:14:39;2.97;;;2.63;;
7539;SDS011;3811;49.006;12.076;2023-04-24T07:17:06;2.60;;;2.40;;
7539;SDS011;3811;49.006;12.076;2023-04-24T07:19:34;2.90;;;2.70;;
7539;SDS011;3811;49.006;12.076;2023-04-24T07:22:01;2.53;;;2.33;;
7539;SDS011;3811;49.006;12.076;2023-04-24T07:24:29;2.80;;;2.30;;
7539;SDS011;3811;49.006;12.076;2023-04-24T07:26:57;2.60;;;2.50;;
7539;SDS011;3811;49.006;12.076;2023-04-24T07:29:25;2.83;;;2.63;;
7539;SDS011;3811;49.006;12.076;2023-04-24T07:31:53;1.90;;;1.80;;
7539;SDS011;3811;49.006;12.076;2023-04-24T07:34:21;4.10;;;2.10;;
7539;SDS011;3811;49.006;12.076;2023-04-24T07:36:48;2.20;;;2.10;;
7539;SDS011;3811;49.006;12.076;2023-04-24T07:39:16;2.03;;;1.93;;
7539;SDS011;3811;49.006;12.076;2023-04-24T07:41:43;3.07;;;1.90;;
7539;SDS011;3811;49.006;12.076;2023-04-24T07:44:10;2.27;;;2.07;;
7539;SDS011;3811;49.006;12.076;2023-04-24T07:46:39;2.43;;;1.67;;
7539;SDS011;3811;49.006;12.076;2023-04-24T07:49:06;2.10;;;2.00;;
7539;SDS011;3811;49.006;12.076;2023-04-24T07:51:34;1.70;;;1.60;;
7539;SDS011;3811;49.006;12.076;2023-04-24T07:54:04;1.90;;;1.60;;
7539;SDS011;3811;49.006;12.076;2023-04-24T07:56:32;2.43;;;1.80;;
7539;SDS011;3811;49.006;12.076;2023-04-24T07:58:59;2.13;;;1.80;;
7539;SDS011;3811;49.006;12.076;2023-04-24T08:01:27;1.73;;;1.63;;
7539;SDS011;3811;49.006;12.076;2023-04-24T08:03:56;1.50;;;1.40;;
7539;SDS011;3811;49.006;12.076;2023-04-24T08:06:23;1.37;;;1.37;;
7539;SDS011;3811;49.006;12.076;2023-04-24T08:08:53;1.97;;;1.40;;
7539;SDS011;3811;49.006;12.076;2023-04-24T08:11:20;3.63;;;1.30;;
7539;SDS011;3811;49.006;12.076;2023-04-24T08:13:47;1.50;;;1.40;;
7539;SDS011;3811;49.006;12.076;2023-04-24T08:16:14;1.47;;;1.37;;
7539;SDS011;3811;49.006;12.076;2023-04-24T08:18:42;1.60;;;1.40;;
7539;SDS011;3811;49.006;12.076;2023-04-24T08:21:10;2.87;;;1.30;;
7539;SDS011;3811;49.006;12.076;2023-04-24T08:23:42;1.93;;;1.50;;
7539;SDS011;3811;49.006;12.076;2023-04-24T08:26:09;1.10;;;1.10;;
7539;SDS011;3811;49.006;12.076;2023-04-24T08:28:39;1.97;;;1.20;;
7539;SDS011;3811;49.006;12.076;2023-04-24T08:31:06;1.93;;;1.33;;
7539;SDS011;3811;49.006;12.076;2023-04-24T08:33:34;2.80;;;1.60;;
7539;SDS011;3811;49.006;12.076;2023-04-24T08:36:01;1.50;;;1.40;;
7539;SDS011;3811;49.006;12.076;2023-04-24T08:38:30;1.27;;;1.27;;
7539;SDS011;3811;49.006;12.076;2023-04-24T08:40:58;1.30;;;1.20;;
7539;SDS011;3811;49.006;12.076;2023-04-24T08:43:26;1.37;;;1.23;;
7539;SDS011;3811;49.006;12.076;2023-04-24T08:45:55;1.63;;;1.53;;
7539;SDS011;3811;49.006;12.076;2023-04-24T08:48:23;3.60;;;1.80;;
7539;SDS011;3811;49.006;12.076;2023-04-24T08:50:50;3.17;;;1.40;;
7539;SDS011;3811;49.006;12.076;2023-04-24T08:53:18;3.80;;;1.30;;
7539;SDS011;3811;49.006;12.076;2023-04-24T08:55:47;2.00;;;1.90;;
7539;SDS011;3811;49.006;12.076;2023-04-24T08:58:16;1.70;;;1.40;;
7539;SDS011;3811;49.006;12.076;2023-04-24T09:00:43;1.53;;;1.43;;
7539;SDS011;3811;49.006;12.076;2023-04-24T09:03:13;2.23;;;1.37;;
7539;SDS011;3811;49.006;12.076;2023-04-24T09:05:41;2.33;;;1.60;;
7539;SDS011;3811;49.006;12.076;2023-04-24T09:08:10;2.80;;;1.20;;
7539;SDS011;3811;49.006;12.076;2023-04-24T09:10:39;3.40;;;1.43;;
7539;SDS011;3811;49.006;12.076;2023-04-24T09:13:08;2.03;;;1.50;;
7539;SDS011;3811;49.006;12.076;2023-04-24T09:15:36;2.60;;;1.73;;
7539;SDS011;3811;49.006;12.076;2023-04-24T09:18:04;1.60;;;1.37;;
7539;SDS011;3811;49.006;12.076;2023-04-24T09:20:31;1.63;;;1.50;;
7539;SDS011;3811;49.006;12.076;2023-04-24T09:23:00;1.40;;;1.30;;
7539;SDS011;3811;49.006;12.076;2023-04-24T09:25:30;1.50;;;1.40;;
7539;SDS011;3811;49.006;12.076;2023-04-24T09:28:00;1.83;;;1.40;;
7539;SDS011;3811;49.006;12.076;2023-04-24T09:30:29;1.13;;;1.13;;
7539;SDS011;3811;49.006;12.076;2023-04-24T09:35:48;1.40;;;1.30;;
7539;SDS011;3811;49.006;12.076;2023-04-24T09:38:16;2.07;;;1.20;;
7539;SDS011;3811;49.006;12.076;2023-04-24T09:40:43;1.10;;;1.10;;
7539;SDS011;3811;49.006;12.076;2023-04-24T09:43:10;1.37;;;1.17;;
7539;SDS011;3811;49.006;12.076;2023-04-24T09:45:39;1.33;;;1.20;;
7539;SDS011;3811;49.006;12.076;2023-04-24T09:48:08;1.10;;;1.10;;
7539;SDS011;3811;49.006;12.076;2023-04-24T09:50:36;1.20;;;1.20;;
7539;SDS011;3811;49.006;12.076;2023-04-24T09:53:04;1.30;;;1.20;;
7539;SDS011;3811;49.006;12.076;2023-04-24T09:55:35;1.10;;;1.10;;
7539;SDS011;3811;49.006;12.076;2023-04-24T09:58:07;1.33;;;1.23;;
7539;SDS011;3811;49.006;12.076;2023-04-24T10:00:35;1.10;;;1.10;;
7539;SDS011;3811;49.006;12.076;2023-04-24T10:03:04;2.60;;;1.30;;
7539;SDS011;3811;49.006;12.076;2023-04-24T10:05:34;1.13;;;1.13;;
7539;SDS011;3811;49.006;12.076;2023-04-24T10:08:03;1.13;;;1.13;;
7539;SDS011;3811;49.006;12.076;2023-04-24T10:10:32;1.80;;;1.30;;
7539;SDS011;3811;49.006;12.076;2023-04-24T10:13:00;1.13;;;1.10;;
7539;SDS011;3811;49.006;12.076;2023-04-24T10:15:27;1.43;;;1.33;;
7539;SDS011;3811;49.006;12.076;2023-04-24T10:17:54;3.10;;;1.27;;
7539;SDS011;3811;49.006;12.076;2023-04-24T10:20:26;1.20;;;1.13;;
7539;SDS011;3811;49.006;12.076;2023-04-24T10:22:54;1.40;;;1.10;;
7539;SDS011;3811;49.006;12.076;2023-04-24T10:25:22;1.40;;;1.30;;
7539;SDS011;3811;49.006;12.076;2023-04-24T10:27:50;1.00;;;1.00;;
7539;SDS011;3811;49.006;12.076;2023-04-24T10:30:18;1.20;;;1.20;;
7539;SDS011;3811;49.006;12.076;2023-04-24T10:32:46;2.07;;;1.10;;
7539;SDS011;3811;49.006;12.076;2023-04-24T10:35:13;2.03;;;1.37;;
7539;SDS011;3811;49.006;12.076;2023-04-24T10:37:43;1.37;;;1.27;;
7539;SDS011;3811;49.006;12.076;2023-04-24T10:40:12;1.27;;;1.13;;
7539;SDS011;3811;49.006;12.076;2023-04-24T10:42:46;1.13;;;1.13;;
7539;SDS011;3811;49.006;12.076;2023-04-24T10:45:17;1.37;;;1.27;;
7539;SDS011;3811;49.006;12.076;2023-04-24T10:47:53;1.30;;;1.20;;
7539;SDS011;3811;49.006;12.076;2023-04-24T10:50:20;1.20;;;1.20;;
7539;SDS011;3811;49.006;12.076;2023-04-24T10:52:49;1.27;;;1.10;;
7539;SDS011;3811;49.006;12.076;2023-04-24T10:58:07;1.30;;;1.20;;
7539;SDS011;3811;49.006;12.076;2023-04-24T11:00:36;1.70;;;1.10;;
7539;SDS011;3811;49.006;12.076;2023-04-24T11:03:04;1.40;;;1.00;;
7539;SDS011;3811;49.006;12.076;2023-04-24T11:05:50;1.10;;;1.03;;
7539;SDS011;3811;49.006;12.076;2023-04-24T11:08:26;1.20;;;1.20;;
7539;SDS011;3811;49.006;12.076;2023-04-24T11:10:59;1.17;;;1.13;;
7539;SDS011;3811;49.006;12.076;2023-04-24T11:13:27;2.83;;;1.33;;
7539;SDS011;3811;49.006;12.076;2023-04-24T11:16:15;1.50;;;1.23;;
7539;SDS011;3811;49.006;12.076;2023-04-24T11:18:42;1.40;;;1.30;;
7539;SDS011;3811;49.006;12.076;2023-04-24T11:21:16;1.67;;;1.23;;
7539;SDS011;3811;49.006;12.076;2023-04-24T11:23:51;3.53;;;1.60;;
7539;SDS011;3811;49.006;12.076;2023-04-24T11:26:19;1.70;;;1.60;;
7539;SDS011;3811;49.006;12.076;2023-04-24T11:28:50;1.20;;;1.20;;
7539;SDS011;3811;49.006;12.076;2023-04-24T11:31:39;1.83;;;1.33;;
7539;SDS011;3811;49.006;12.076;2023-04-24T11:34:07;1.50;;;1.40;;
7539;SDS011;3811;49.006;12.076;2023-04-24T11:36:35;1.50;;;1.40;;
7539;SDS011;3811;49.006;12.076;2023-04-24T11:39:04;2.53;;;1.40;;
7539;SDS011;3811;49.006;12.076;2023-04-24T11:41:31;1.40;;;1.30;;
7539;SDS011;3811;49.006;12.076;2023-04-24T11:43:59;2.90;;;1.10;;
7539;SDS011;3811;49.006;12.076;2023-04-24T11:46:27;1.30;;;1.20;;
7539;SDS011;3811;49.006;12.076;2023-04-24T11:48:56;1.23;;;1.13;;
7539;SDS011;3811;49.006;12.076;2023-04-24T11:51:24;1.20;;;1.20;;
7539;SDS011;3811;49.006;12.076;2023-04-24T11:53:51;1.00;;;0.90;;
7539;SDS011;3811;49.006;12.076;2023-04-24T11:56:20;1.00;;;0.90;;
7539;SDS011;3811;49.006;12.076;2023-04-24T11:58:47;1.93;;;1.33;;
7539;SDS011;3811;49.006;12.076;2023-04-24T12:01:15;3.40;;;0.97;;
7539;SDS011;3811;49.006;12.076;2023-04-24T12:03:43;1.30;;;1.20;;
7539;SDS011;3811;49.006;12.076;2023-04-24T12:06:16;1.10;;;1.10;;
7539;SDS011;3811;49.006;12.076;2023-04-24T12:08:45;2.20;;;1.40;;
7539;SDS011;3811;49.006;12.076;2023-04-24T12:11:14;1.37;;;1.20;;
7539;SDS011;3811;49.006;12.076;2023-04-24T12:13:44;1.30;;;1.20;;
7539;SDS011;3811;49.006;12.076;2023-04-24T12:16:12;1.17;;;1.17;;
7539;SDS011;3811;49.006;12.076;2023-04-24T12:18:43;1.40;;;1.30;;
7539;SDS011;3811;49.006;12.076;2023-04-24T12:21:15;1.67;;;1.57;;
7539;SDS011;3811;49.006;12.076;2023-04-24T12:23:43;1.70;;;1.60;;
7539;SDS011;3811;49.006;12.076;2023-04-24T12:26:11;1.70;;;1.60;;
7539;SDS011;3811;49.006;12.076;2023-04-24T12:28:39;1.73;;;1.63;;
7539;SDS011;3811;49.006;12.076;2023-04-24T12:31:08;1.40;;;1.30;;
7539;SDS011;3811;49.006;12.076;2023-04-24T12:33:35;1.30;;;1.20;;
7539;SDS011;3811;49.006;12.076;2023-04-24T12:36:03;2.40;;;1.10;;
7539;SDS011;3811;49.006;12.076;2023-04-24T12:38:31;1.23;;;1.17;;
7539;SDS011;3811;49.006;12.076;2023-04-24T12:41:05;1.43;;;1.33;;
7539;SDS011;3811;49.006;12.076;2023-04-24T12:43:33;1.10;;;1.10;;
7539;SDS011;3811;49.006;12.076;2023-04-24T12:46:01;1.50;;;1.40;;
7539;SDS011;3811;49.006;12.076;2023-04-24T12:48:30;1.10;;;1.10;;
7539;SDS011;3811;49.006;12.076;2023-04-24T12:50:57;3.70;;;1.30;;
7539;SDS011;3811;49.006;12.076;2023-04-24T12:53:26;1.20;;;1.10;;
7539;SDS011;3811;49.006;12.076;2023-04-24T12:55:55;1.33;;;1.00;;
7539;SDS011;3811;49.006;12.076;2023-04-24T12:58:22;1.27;;;0.90;;
7539;SDS011;3811;49.006;12.076;2023-04-24T13:00:50;1.27;;;1.27;;
7539;SDS011;3811;49.006;12.076;2023-04-24T13:03:17;1.10;;;1.10;;
7539;SDS011;3811;49.006;12.076;2023-04-24T13:05:46;1.47;;;1.10;;
7539;SDS011;3811;49.006;12.076;2023-04-24T13:08:13;1.20;;;1.20;;
7539;SDS011;3811;49.006;12.076;2023-04-24T13:10:40;1.80;;;1.30;;
7539;SDS011;3811;49.006;12.076;2023-04-24T13:13:08;1.20;;;1.20;;
7539;SDS011;3811;49.006;12.076;2023-04-24T13:15:35;1.63;;;0.87;;
7539;SDS011;3811;49.006;12.076;2023-04-24T13:18:02;1.00;;;1.00;;
7539;SDS011;3811;49.006;12.076;2023-04-24T13:20:29;0.90;;;0.90;;
7539;SDS011;3811;49.006;12.076;2023-04-24T13:22:58;0.97;;;0.93;;
7539;SDS011;3811;49.006;12.076;2023-04-24T13:25:25;1.13;;;1.10;;
7539;SDS011;3811;49.006;12.076;2023-04-24T13:27:53;1.00;;;1.00;;
7539;SDS011;3811;49.006;12.076;2023-04-24T13:30:20;2.93;;;1.00;;
7539;SDS011;3811;49.006;12.076;2023-04-24T13:32:47;1.20;;;1.10;;
7539;SDS011;3811;49.006;12.076;2023-04-24T13:35:14;0.87;;;0.87;;
7539;SDS011;3811;49.006;12.076;2023-04-24T13:37:41;0.83;;;0.83;;
7539;SDS011;3811;49.006;12.076;2023-04-24T13:40:10;2.20;;;1.20;;
7539;SDS011;3811;49.006;12.076;2023-04-24T13:42:38;1.03;;;1.00;;
7539;SDS011;3811;49.006;12.076;2023-04-24T13:45:05;1.10;;;1.07;;
7539;SDS011;3811;49.006;12.076;2023-04-24T13:47:40;1.33;;;1.10;;
7539;SDS011;3811;49.006;12.076;2023-04-24T13:53:47;0.90;;;0.90;;
7539;SDS011;3811;49.006;12.076;2023-04-24T13:56:16;1.13;;;1.13;;
7539;SDS011;3811;49.006;12.076;2023-04-24T13:58:43;1.10;;;1.03;;
7539;SDS011;3811;49.006;12.076;2023-04-24T14:01:10;1.93;;;1.10;;
7539;SDS011;3811;49.006;12.076;2023-04-24T14:03:38;1.10;;;1.10;;
7539;SDS011;3811;49.006;12.076;2023-04-24T14:06:05;3.10;;;1.40;;
7539;SDS011;3811;49.006;12.076;2023-04-24T14:08:33;1.00;;;1.00;;
7539;SDS011;3811;49.006;12.076;2023-04-24T14:11:00;1.20;;;1.20;;
7539;SDS011;3811;49.006;12.076;2023-04-24T14:13:29;1.20;;;1.10;;
7539;SDS011;3811;49.006;12.076;2023-04-24T14:15:56;1.23;;;1.13;;
7539;SDS011;3811;49.006;12.076;2023-04-24T14:18:24;1.73;;;1.30;;
7539;SDS011;3811;49.006;12.076;2023-04-24T14:20:52;1.03;;;1.03;;
7539;SDS011;3811;49.006;12.076;2023-04-24T14:23:19;1.20;;;1.10;;
7539;SDS011;3811;49.006;12.076;2023-04-24T14:25:46;1.37;;;1.20;;
7539;SDS011;3811;49.006;12.076;2023-04-24T14:28:16;1.30;;;1.30;;
7539;SDS011;3811;49.006;12.076;2023-04-24T14:30:45;2.00;;;1.10;;
7539;SDS011;3811;49.006;12.076;2023-04-24T14:33:13;1.57;;;1.40;;
7539;SDS011;3811;49.006;12.076;2023-04-24T14:35:40;2.20;;;1.20;;
7539;SDS011;3811;49.006;12.076;2023-04-24T14:38:08;1.40;;;1.30;;
7539;SDS011;3811;49.006;12.076;2023-04-24T14:40:35;1.43;;;1.30;;
7539;SDS011;3811;49.006;12.076;2023-04-24T14:43:03;1.20;;;1.10;;
7539;SDS011;3811;49.006;12.076;2023-04-24T14:45:32;1.40;;;1.30;;
7539;SDS011;3811;49.006;12.076;2023-04-24T14:48:02;1.73;;;1.10;;
7539;SDS011;3811;49.006;12.076;2023-04-24T14:50:30;1.30;;;1.20;;
7539;SDS011;3811;49.006;12.076;2023-04-24T14:52:57;1.33;;;1.23;;
7539;SDS011;3811;49.006;12.076;2023-04-24T14:55:24;1.63;;;1.17;;
7539;SDS011;3811;49.006;12.076;2023-04-24T14:57:52;1.30;;;1.20;;
7539;SDS011;3811;49.006;12.076;2023-04-24T15:00:19;2.13;;;1.17;;
7539;SDS011;3811;49.006;12.076;2023-04-24T15:02:48;1.60;;;1.20;;
7539;SDS011;3811;49.006;12.076;2023-04-24T15:05:18;1.40;;;1.30;;
7539;SDS011;3811;49.006;12.076;2023-04-24T15:07:45;3.90;;;1.37;;
7539;SDS011;3811;49.006;12.076;2023-04-24T15:10:13;1.43;;;1.30;;
7539;SDS011;3811;49.006;12.076;2023-04-24T15:12:40;1.67;;;1.57;;
7539;SDS011;3811;49.006;12.076;2023-04-24T15:15:09;2.00;;;1.50;;
7539;SDS011;3811;49.006;12.076;2023-04-24T15:17:50;4.20;;;2.67;;